createdAt,value
2019-03-05T00:00:42.507Z,5.00
2019-03-05T00:03:11.914Z,4.55
2019-03-05T00:05:41.332Z,4.62
2019-03-05T00:08:10.789Z,4.47
2019-03-05T00:10:40.195Z,4.40
2019-03-05T00:13:09.635Z,4.50
2019-03-05T00:15:39.065Z,4.37
2019-03-05T00:18:08.554Z,4.30
2019-03-05T00:20:37.981Z,4.22
2019-03-05T00:23:08.466Z,4.42
2019-03-05T00:25:38.478Z,4.60
2019-03-05T00:28:25.283Z,4.17
2019-03-05T00:31:05.009Z,4.87
2019-03-05T00:34:07.803Z,4.12
2019-03-05T00:36:47.933Z,4.17
2019-03-05T00:39:40.545Z,4.28
2019-03-05T00:42:46.686Z,4.28
2019-03-05T00:45:41.692Z,3.75
2019-03-05T00:48:40.151Z,3.85
2019-03-05T00:51:36.788Z,3.90
2019-03-05T00:54:56.640Z,3.30
2019-03-05T00:58:24.224Z,3.98
2019-03-05T01:01:36.689Z,3.90
2019-03-05T01:04:32.027Z,3.40
2019-03-05T01:07:01.461Z,3.70
2019-03-05T01:09:49.942Z,3.95
2019-03-05T01:12:20.377Z,3.75
2019-03-05T01:14:51.837Z,3.50
2019-03-05T01:17:21.496Z,3.65
2019-03-05T01:19:50.953Z,3.00
2019-03-05T01:22:20.779Z,3.60
2019-03-05T01:24:50.317Z,3.72
2019-03-05T01:27:19.748Z,3.12
2019-03-05T01:29:49.163Z,3.25
2019-03-05T01:32:40.773Z,2.90
2019-03-05T01:35:38.064Z,3.30
2019-03-05T01:38:07.571Z,3.30
2019-03-05T01:40:59.695Z,2.87
2019-03-05T01:43:29.144Z,2.95
2019-03-05T01:45:58.531Z,2.95
2019-03-05T01:48:27.957Z,2.50
2019-03-05T01:50:57.380Z,2.55
2019-03-05T01:53:26.830Z,2.12
2019-03-05T01:55:56.269Z,1.90
2019-03-05T01:58:25.667Z,2.30
2019-03-05T02:00:55.085Z,2.50
2019-03-05T02:03:24.507Z,1.95
2019-03-05T02:05:54.037Z,2.00
2019-03-05T02:08:23.554Z,1.82
2019-03-05T02:10:52.972Z,2.00
2019-03-05T02:13:22.395Z,1.72
2019-03-05T02:15:51.845Z,1.70
2019-03-05T02:18:23.624Z,1.85
2019-03-05T02:20:53.035Z,1.47
2019-03-05T02:23:27.397Z,1.75
2019-03-05T02:26:46.507Z,1.50
2019-03-05T02:29:30.487Z,1.35
2019-03-05T02:32:46.268Z,1.25
2019-03-05T02:35:56.872Z,1.32
2019-03-05T02:39:06.422Z,1.40
2019-03-05T02:42:06.373Z,1.20
2019-03-05T02:45:09.300Z,1.30
2019-03-05T02:48:05.726Z,1.42
2019-03-05T02:51:10.288Z,1.35
2019-03-05T02:54:11.030Z,1.70
2019-03-05T02:57:15.648Z,1.20
2019-03-05T02:59:45.074Z,1.30
2019-03-05T03:02:51.941Z,1.40
2019-03-05T03:05:40.307Z,1.40
2019-03-05T03:08:09.729Z,1.80
2019-03-05T03:10:39.159Z,1.45
2019-03-05T03:13:08.614Z,1.77
2019-03-05T03:15:38.033Z,1.52
2019-03-05T03:18:07.443Z,1.92
2019-03-05T03:20:36.887Z,2.02
2019-03-05T03:23:06.343Z,1.75
2019-03-05T03:25:35.757Z,1.35
2019-03-05T03:28:05.557Z,1.75
2019-03-05T03:30:34.983Z,2.08
2019-03-05T03:33:04.791Z,2.08
2019-03-05T03:35:34.186Z,1.90
2019-03-05T03:38:03.677Z,1.82
2019-03-05T03:40:33.441Z,1.50
2019-03-05T03:43:02.851Z,1.82
2019-03-05T03:45:32.264Z,1.80
2019-03-05T03:48:01.665Z,3.10
2019-03-05T03:50:31.088Z,1.98
2019-03-05T03:53:00.518Z,2.00
2019-03-05T03:55:29.981Z,1.90
2019-03-05T03:57:59.370Z,1.50
2019-03-05T04:00:28.873Z,1.62
2019-03-05T04:02:58.288Z,1.57
2019-03-05T04:05:27.754Z,1.80
2019-03-05T04:07:57.181Z,2.00
2019-03-05T04:10:26.626Z,1.70
2019-03-05T04:12:56.061Z,1.60
2019-03-05T04:15:25.510Z,1.55
2019-03-05T04:17:54.942Z,1.57
2019-03-05T04:20:30.627Z,1.47
2019-03-05T04:23:00.052Z,1.47
2019-03-05T04:25:29.472Z,1.90
2019-03-05T04:27:58.895Z,1.95
2019-03-05T04:30:28.749Z,1.60
2019-03-05T04:32:58.587Z,1.77
2019-03-05T04:35:28.012Z,1.50
2019-03-05T04:37:57.833Z,1.70
2019-03-05T04:40:27.241Z,1.40
2019-03-05T04:42:56.655Z,1.40
2019-03-05T04:46:05.735Z,1.25
2019-03-05T04:48:35.193Z,1.60
2019-03-05T04:51:13.416Z,2.30
2019-03-05T04:53:42.835Z,1.40
2019-03-05T04:56:12.281Z,1.80
2019-03-05T04:58:41.717Z,1.30
2019-03-05T05:01:11.126Z,1.20
2019-03-05T05:03:40.544Z,1.10
2019-03-05T05:06:09.989Z,1.62
2019-03-05T05:08:39.425Z,1.45
2019-03-05T05:11:08.841Z,1.30
2019-03-05T05:13:38.266Z,1.92
2019-03-05T05:16:07.732Z,1.35
2019-03-05T05:18:37.488Z,1.57
2019-03-05T05:21:06.945Z,1.67
2019-03-05T05:23:36.349Z,1.60
2019-03-05T05:26:06.083Z,1.50
2019-03-05T05:28:35.541Z,1.45
2019-03-05T05:31:04.963Z,1.50
2019-03-05T05:33:34.381Z,1.12
2019-03-05T05:36:03.811Z,1.35
2019-03-05T05:38:33.265Z,1.35
2019-03-05T05:41:02.703Z,2.85
2019-03-05T05:43:32.598Z,1.30
2019-03-05T05:46:02.060Z,3.40
2019-03-05T05:48:31.644Z,1.17
2019-03-05T05:51:01.315Z,1.22
2019-03-05T05:53:30.728Z,1.37
2019-03-05T05:56:00.567Z,1.40
2019-03-05T05:58:30.238Z,1.20
2019-03-05T06:01:02.042Z,1.20
2019-03-05T06:03:31.623Z,1.60
2019-03-05T06:06:01.048Z,1.40
2019-03-05T06:08:30.486Z,1.00
2019-03-05T06:11:00.039Z,1.50
2019-03-05T06:13:29.531Z,1.32
2019-03-05T06:15:58.999Z,1.32
2019-03-05T06:18:28.737Z,1.50
2019-03-05T06:20:58.219Z,1.32
2019-03-05T06:23:27.667Z,1.17
2019-03-05T06:25:57.083Z,1.40
2019-03-05T06:28:26.508Z,1.17
2019-03-05T06:30:55.933Z,1.30
2019-03-05T06:33:25.488Z,1.40
2019-03-05T06:35:54.927Z,1.25
2019-03-05T06:38:24.745Z,1.20
2019-03-05T06:40:54.155Z,1.10
2019-03-05T06:43:23.577Z,1.00
2019-03-05T06:45:52.989Z,1.07
2019-03-05T06:48:22.440Z,1.80
2019-03-05T06:50:51.848Z,1.05
2019-03-05T06:53:21.274Z,1.30
2019-03-05T06:55:50.685Z,1.00
2019-03-05T06:58:20.120Z,1.40
2019-03-05T07:00:49.539Z,1.20
2019-03-05T07:03:19.273Z,1.02
2019-03-05T07:06:24.900Z,1.35
2019-03-05T07:09:09.124Z,1.20
2019-03-05T07:12:00.970Z,0.95
2019-03-05T07:14:52.665Z,1.42
2019-03-05T07:17:31.261Z,1.05
2019-03-05T07:20:26.872Z,1.05
2019-03-05T07:23:32.210Z,1.20
2019-03-05T07:26:01.629Z,1.40
2019-03-05T07:28:31.069Z,1.00
2019-03-05T07:31:00.509Z,1.20
2019-03-05T07:33:29.915Z,1.15
2019-03-05T07:35:59.338Z,1.30
2019-03-05T07:38:29.077Z,1.20
2019-03-05T07:40:58.509Z,0.95
2019-03-05T07:43:36.267Z,1.00
2019-03-05T07:45:58.971Z,1.20
2019-03-05T07:48:29.647Z,1.20
2019-03-05T07:50:59.250Z,1.20
2019-03-05T07:53:28.697Z,1.00
2019-03-05T07:55:58.111Z,1.10
2019-03-05T07:58:27.525Z,1.10
2019-03-05T08:00:56.996Z,1.52
2019-03-05T08:03:26.379Z,1.22
2019-03-05T08:05:55.888Z,1.10
2019-03-05T08:09:01.336Z,1.05
2019-03-05T08:11:31.798Z,1.00
2019-03-05T08:14:28.536Z,1.20
2019-03-05T08:16:57.957Z,1.30
2019-03-05T08:19:27.387Z,1.05
2019-03-05T08:21:56.824Z,1.30
2019-03-05T08:24:26.248Z,1.07
2019-03-05T08:26:55.649Z,1.27
2019-03-05T08:29:25.118Z,1.00
2019-03-05T08:31:55.435Z,1.10
2019-03-05T08:34:24.876Z,0.95
2019-03-05T08:36:54.282Z,1.10
2019-03-05T08:39:23.720Z,1.02
2019-03-05T08:41:53.155Z,1.22
2019-03-05T08:44:22.569Z,1.00
2019-03-05T08:46:52.015Z,0.85
2019-03-05T08:49:21.453Z,1.20
2019-03-05T08:51:51.339Z,1.07
2019-03-05T08:54:21.077Z,1.17
2019-03-05T08:56:50.497Z,1.25
2019-03-05T08:59:19.928Z,1.62
2019-03-05T09:01:49.849Z,1.42
2019-03-05T09:04:19.257Z,4.05
2019-03-05T09:06:48.983Z,4.25
2019-03-05T09:09:18.611Z,22.07
2019-03-05T09:11:48.067Z,15.08
2019-03-05T09:14:17.525Z,12.10
2019-03-05T09:16:46.945Z,1.62
2019-03-05T09:19:16.367Z,1.60
2019-03-05T09:21:45.799Z,8.10
2019-03-05T09:24:15.247Z,2.00
2019-03-05T09:26:51.191Z,1.90
2019-03-05T09:29:15.784Z,1.57
2019-03-05T09:31:45.529Z,1.80
2019-03-05T09:34:14.993Z,1.35
2019-03-05T09:36:50.984Z,1.20
2019-03-05T09:39:16.217Z,1.00
2019-03-05T09:41:45.845Z,1.42
2019-03-05T09:44:15.289Z,1.00
2019-03-05T09:46:44.707Z,0.82
2019-03-05T09:49:14.115Z,0.85
2019-03-05T09:51:43.542Z,1.00
2019-03-05T09:54:13.014Z,0.90
2019-03-05T09:56:42.473Z,1.10
2019-03-05T09:59:11.879Z,1.00
2019-03-05T10:01:41.999Z,1.00
2019-03-05T10:04:11.437Z,0.93
2019-03-05T10:06:40.867Z,1.02
2019-03-05T10:09:10.294Z,0.90
2019-03-05T10:11:39.734Z,1.20
2019-03-05T10:14:09.133Z,1.17
2019-03-05T10:16:38.609Z,0.90
2019-03-05T10:19:08.019Z,0.98
2019-03-05T10:21:45.880Z,0.90
2019-03-05T10:24:10.753Z,0.98
2019-03-05T10:26:39.597Z,0.75
2019-03-05T10:29:09.022Z,1.00
2019-03-05T10:31:38.452Z,0.90
2019-03-05T10:34:07.864Z,1.10
2019-03-05T10:36:37.297Z,1.00
2019-03-05T10:39:29.977Z,1.00
2019-03-05T10:41:53.092Z,0.88
2019-03-05T10:44:22.533Z,0.90
2019-03-05T10:46:51.957Z,1.07
2019-03-05T10:49:22.430Z,1.15
2019-03-05T10:51:51.921Z,0.93
2019-03-05T10:54:21.451Z,1.00
2019-03-05T10:56:51.215Z,1.20
2019-03-05T10:59:20.686Z,1.27
2019-03-05T11:01:50.203Z,1.00
2019-03-05T11:04:19.619Z,1.15
2019-03-05T11:06:49.063Z,1.10
2019-03-05T11:09:20.604Z,1.20
2019-03-05T11:11:50.031Z,1.27
2019-03-05T11:14:19.489Z,1.10
2019-03-05T11:16:49.992Z,1.15
2019-03-05T11:19:19.604Z,1.30
2019-03-05T11:21:49.058Z,1.22
2019-03-05T11:24:18.463Z,1.17
2019-03-05T11:26:47.878Z,1.20
2019-03-05T11:29:17.321Z,1.10
2019-03-05T11:31:47.163Z,1.20
2019-03-05T11:34:16.779Z,1.20
2019-03-05T11:36:46.638Z,1.20
2019-03-05T11:39:16.650Z,1.17
2019-03-05T11:41:46.145Z,0.95
2019-03-05T11:44:15.926Z,1.32
2019-03-05T11:46:45.802Z,1.20
2019-03-05T11:49:15.231Z,0.90
2019-03-05T11:51:45.428Z,1.00
2019-03-05T11:54:14.847Z,1.07
2019-03-05T11:56:44.278Z,1.20
2019-03-05T11:59:13.698Z,1.02
2019-03-05T12:01:46.524Z,1.00
2019-03-05T12:04:15.930Z,1.10
2019-03-05T12:06:45.365Z,1.15
2019-03-05T12:09:15.471Z,1.42
2019-03-05T12:11:44.912Z,1.10
2019-03-05T12:14:14.317Z,0.95
2019-03-05T12:16:43.769Z,1.67
2019-03-05T12:19:13.195Z,1.00
2019-03-05T12:21:42.616Z,1.30
2019-03-05T12:24:44.842Z,1.10
2019-03-05T12:27:14.790Z,1.60
2019-03-05T12:29:44.154Z,1.47
2019-03-05T12:32:15.342Z,1.05
2019-03-05T12:34:44.874Z,1.32
2019-03-05T12:37:14.643Z,1.80
2019-03-05T12:39:44.207Z,1.27
2019-03-05T12:42:14.278Z,1.55
2019-03-05T12:44:43.688Z,1.70
2019-03-05T12:47:13.118Z,1.37
2019-03-05T12:49:43.013Z,1.70
2019-03-05T12:52:13.138Z,1.50
2019-03-05T12:54:42.560Z,1.22
2019-03-05T12:57:11.991Z,1.60
2019-03-05T12:59:42.975Z,1.10
2019-03-05T13:02:12.408Z,1.15
2019-03-05T13:04:41.914Z,1.30
2019-03-05T13:07:14.210Z,1.40
2019-03-05T13:09:42.332Z,1.47
2019-03-05T13:12:11.757Z,2.00
2019-03-05T13:14:42.728Z,1.95
2019-03-05T13:17:12.425Z,1.98
2019-03-05T13:19:44.349Z,1.55
2019-03-05T13:22:13.375Z,0.90
2019-03-05T13:24:42.848Z,1.00
2019-03-05T13:27:12.333Z,0.80
2019-03-05T13:29:42.295Z,0.70
2019-03-05T13:32:11.682Z,0.70
2019-03-05T13:34:41.129Z,0.75
2019-03-05T13:37:12.104Z,1.40
2019-03-05T13:39:41.651Z,1.02
2019-03-05T13:42:11.125Z,0.90
2019-03-05T13:44:40.894Z,0.80
2019-03-05T13:47:13.314Z,1.00
2019-03-05T13:49:59.813Z,1.07
2019-03-05T13:53:23.973Z,1.20
2019-03-05T13:56:37.883Z,1.95
2019-03-05T13:59:41.827Z,2.60
2019-03-05T14:02:12.127Z,1.60
2019-03-05T14:05:15.462Z,2.15
2019-03-05T14:08:11.768Z,2.30
2019-03-05T14:10:41.157Z,3.70
2019-03-05T14:13:11.057Z,2.30
2019-03-05T14:15:43.317Z,2.25
2019-03-05T14:18:12.783Z,2.00
2019-03-05T14:20:45.099Z,2.42
2019-03-05T14:23:14.526Z,2.10
2019-03-05T14:25:44.056Z,2.50
2019-03-05T14:28:13.728Z,2.00
2019-03-05T14:30:44.135Z,2.27
2019-03-05T14:33:13.889Z,2.00
2019-03-05T14:35:43.941Z,1.70
2019-03-05T14:38:13.539Z,1.98
2019-03-05T14:43:33.346Z,3.08
2019-03-05T14:46:02.915Z,3.35
2019-03-05T14:48:32.631Z,4.45
2019-03-05T14:51:02.129Z,9.20
2019-03-05T14:53:35.114Z,3.70
2019-03-05T14:56:05.367Z,3.15
2019-03-05T14:58:34.768Z,4.12
2019-03-05T15:01:05.938Z,5.12
2019-03-05T15:03:35.555Z,6.65
2019-03-05T15:06:04.994Z,8.48
2019-03-05T15:08:34.416Z,22.13
2019-03-05T15:11:03.842Z,14.15
2019-03-05T15:13:34.254Z,24.25
2019-03-05T15:16:03.685Z,12.43
2019-03-05T15:18:33.510Z,4.80
2019-03-05T15:21:03.043Z,10.15
2019-03-05T15:23:32.491Z,27.77
2019-03-05T15:26:01.957Z,4.92
2019-03-05T15:28:31.506Z,11.48
2019-03-05T15:31:00.900Z,8.38
2019-03-05T15:33:30.834Z,8.40
2019-03-05T15:36:00.349Z,4.97
2019-03-05T15:38:29.831Z,16.20
2019-03-05T15:40:59.347Z,8.45
2019-03-05T15:43:28.769Z,38.13
2019-03-05T15:45:58.480Z,10.82
2019-03-05T15:48:27.937Z,13.10
2019-03-05T15:50:57.683Z,32.50
2019-03-05T15:53:27.680Z,19.70
2019-03-05T15:55:57.260Z,3.15
2019-03-05T15:58:26.702Z,4.20
2019-03-05T16:00:56.321Z,7.10
2019-03-05T16:03:25.825Z,9.10
2019-03-05T16:05:57.733Z,12.65
2019-03-05T16:08:26.882Z,5.55
2019-03-05T16:10:58.751Z,8.33
2019-03-05T16:13:27.436Z,5.40
2019-03-05T16:15:56.928Z,10.98
2019-03-05T16:18:26.561Z,30.35
2019-03-05T16:20:58.129Z,58.92
2019-03-05T16:23:28.400Z,23.38
2019-03-05T16:25:58.295Z,19.92
2019-03-05T16:28:28.143Z,25.17
2019-03-05T16:31:11.256Z,87.92
2019-03-05T16:33:58.584Z,93.27
2019-03-05T16:37:05.778Z,6.30
2019-03-05T16:39:46.422Z,8.10
2019-03-05T16:42:34.609Z,4.67
2019-03-05T16:45:29.019Z,6.40
2019-03-05T16:48:26.633Z,10.13
2019-03-05T16:51:15.053Z,14.03
2019-03-05T16:54:09.471Z,16.45
2019-03-05T16:56:56.803Z,10.93
2019-03-05T16:59:53.310Z,24.70
2019-03-05T17:02:40.587Z,11.97
2019-03-05T17:05:29.227Z,7.35
2019-03-05T17:08:18.065Z,5.37
2019-03-05T17:10:57.614Z,6.92
2019-03-05T17:13:27.058Z,7.75
2019-03-05T17:15:56.773Z,23.10
2019-03-05T17:18:26.228Z,4.90
2019-03-05T17:21:16.819Z,7.20
2019-03-05T17:23:58.976Z,20.12
2019-03-05T17:26:28.493Z,10.55
2019-03-05T17:28:57.988Z,8.60
2019-03-05T17:31:27.691Z,10.23
2019-03-05T17:33:57.557Z,9.70
2019-03-05T17:36:27.058Z,8.53
2019-03-05T17:38:56.606Z,7.60
2019-03-05T17:41:26.161Z,7.42
2019-03-05T17:43:55.803Z,7.97
2019-03-05T17:46:25.304Z,21.75
2019-03-05T17:48:54.746Z,10.00
2019-03-05T17:51:24.792Z,11.95
2019-03-05T17:54:13.294Z,9.60
2019-03-05T17:56:42.819Z,8.30
2019-03-05T17:59:12.305Z,10.72
2019-03-05T18:01:41.757Z,13.83
2019-03-05T18:04:11.199Z,17.15
2019-03-05T18:06:40.786Z,15.45
2019-03-05T18:09:10.371Z,11.40
2019-03-05T18:11:41.830Z,9.45
2019-03-05T18:14:11.657Z,7.67
2019-03-05T18:16:41.213Z,12.15
2019-03-05T18:19:10.673Z,12.33
2019-03-05T18:21:40.481Z,8.58
2019-03-05T18:24:09.936Z,6.37
2019-03-05T18:26:39.722Z,6.22
2019-03-05T18:29:09.574Z,6.25
2019-03-05T18:31:39.064Z,7.72
2019-03-05T18:34:08.533Z,6.35
2019-03-05T18:36:38.019Z,6.08
2019-03-05T18:39:08.672Z,5.15
2019-03-05T18:41:38.213Z,7.30
2019-03-05T18:44:07.663Z,6.10
2019-03-05T18:46:37.242Z,6.40
2019-03-05T18:49:07.095Z,5.70
2019-03-05T18:51:36.983Z,5.58
2019-03-05T18:54:06.541Z,6.33
2019-03-05T18:56:36.292Z,6.10
2019-03-05T18:59:06.080Z,6.50
2019-03-05T19:01:35.906Z,6.25
2019-03-05T19:04:06.103Z,6.05
2019-03-05T19:06:35.950Z,7.10
2019-03-05T19:09:06.949Z,5.50
2019-03-05T19:11:36.529Z,5.33
2019-03-05T19:14:06.095Z,5.80
2019-03-05T19:16:37.863Z,6.10
2019-03-05T19:19:08.878Z,6.75
2019-03-05T19:21:38.622Z,6.95
2019-03-05T19:24:08.963Z,4.70
2019-03-05T19:26:38.549Z,5.40
2019-03-05T19:29:08.817Z,8.15
2019-03-05T19:31:39.079Z,6.53
2019-03-05T19:34:09.095Z,6.75
2019-03-05T19:36:39.446Z,5.53
2019-03-05T19:39:09.050Z,5.50
2019-03-05T19:41:38.745Z,5.35
2019-03-05T19:44:16.749Z,5.40
2019-03-05T19:46:46.352Z,5.03
2019-03-05T19:49:17.509Z,5.80
2019-03-05T19:51:51.571Z,4.55
2019-03-05T19:54:23.146Z,5.53
2019-03-05T19:56:54.961Z,4.95
2019-03-05T19:59:24.856Z,5.47
2019-03-05T20:01:56.596Z,4.60
2019-03-05T20:04:30.556Z,6.10
2019-03-05T20:07:00.167Z,5.37
2019-03-05T20:09:34.393Z,5.00
2019-03-05T20:12:05.538Z,4.72
2019-03-05T20:14:36.123Z,5.33
2019-03-05T20:17:10.412Z,4.67
2019-03-05T20:19:42.576Z,5.70
2019-03-05T20:22:16.624Z,4.40
2019-03-05T20:24:54.856Z,4.92
2019-03-05T20:27:27.331Z,4.60
2019-03-05T20:29:58.671Z,5.40
2019-03-05T20:32:31.919Z,5.78
2019-03-05T20:35:03.134Z,5.00
2019-03-05T20:37:32.772Z,8.70
2019-03-05T20:40:02.908Z,6.60
2019-03-05T20:42:32.712Z,6.70
2019-03-05T20:45:03.648Z,6.95
2019-03-05T20:47:33.370Z,5.87
2019-03-05T20:50:02.853Z,6.25
2019-03-05T20:52:32.359Z,5.45
2019-03-05T20:55:03.059Z,6.80
2019-03-05T20:57:32.675Z,4.62
2019-03-05T21:00:02.191Z,12.20
2019-03-05T21:02:31.775Z,14.35
2019-03-05T21:05:02.486Z,11.05
2019-03-05T21:07:32.146Z,7.37
2019-03-05T21:10:01.656Z,6.90
2019-03-05T21:12:31.620Z,6.87
2019-03-05T21:15:01.118Z,5.35
2019-03-05T21:17:30.800Z,8.43
2019-03-05T21:20:00.445Z,5.78
2019-03-05T21:22:29.869Z,7.50
2019-03-05T21:24:59.757Z,7.50
2019-03-05T21:27:29.296Z,8.55
2019-03-05T21:29:59.328Z,7.65
2019-03-05T21:32:29.130Z,6.00
2019-03-05T21:34:58.558Z,5.50
2019-03-05T21:37:28.007Z,5.55
2019-03-05T21:39:57.421Z,7.33
2019-03-05T21:42:27.550Z,7.83
2019-03-05T21:44:56.954Z,4.70
2019-03-05T21:47:26.383Z,6.83
2019-03-05T21:49:55.860Z,11.63
2019-03-05T21:52:44.708Z,5.53
2019-03-05T21:55:14.427Z,8.93
2019-03-05T21:57:43.850Z,10.95
2019-03-05T22:00:15.860Z,10.53
2019-03-05T22:02:45.388Z,8.88
2019-03-05T22:05:15.451Z,6.40
2019-03-05T22:08:03.941Z,7.10
2019-03-05T22:10:33.667Z,7.00
2019-03-05T22:13:03.127Z,9.53
2019-03-05T22:15:32.594Z,10.25
2019-03-05T22:18:02.011Z,9.13
2019-03-05T22:20:31.431Z,6.08
2019-03-05T22:23:01.260Z,10.48
2019-03-05T22:25:30.673Z,9.45
2019-03-05T22:28:00.100Z,6.25
2019-03-05T22:30:30.561Z,8.38
2019-03-05T22:33:00.027Z,8.45
2019-03-05T22:35:29.447Z,5.97
2019-03-05T22:37:58.878Z,7.40
2019-03-05T22:40:28.513Z,10.45
2019-03-05T22:42:57.985Z,7.53
2019-03-05T22:45:27.420Z,6.45
2019-03-05T22:47:57.229Z,6.22
2019-03-05T22:50:26.653Z,27.25
2019-03-05T22:52:56.121Z,11.75
2019-03-05T22:55:25.544Z,7.25
2019-03-05T22:57:55.259Z,6.17
2019-03-05T23:01:13.391Z,14.90
2019-03-05T23:03:49.053Z,15.85
2019-03-05T23:06:18.495Z,8.68
2019-03-05T23:08:47.955Z,6.92
2019-03-05T23:11:17.767Z,15.43
2019-03-05T23:13:47.635Z,13.15
2019-03-05T23:16:17.059Z,13.60
2019-03-05T23:18:47.165Z,9.60
2019-03-05T23:21:16.587Z,11.85
2019-03-05T23:23:46.071Z,12.10
2019-03-05T23:26:15.686Z,9.78
2019-03-05T23:28:45.405Z,7.53
2019-03-05T23:31:14.827Z,6.80
2019-03-05T23:33:44.252Z,7.28
2019-03-05T23:36:13.700Z,9.28
2019-03-05T23:38:43.108Z,6.55
2019-03-05T23:41:12.519Z,8.00
2019-03-05T23:43:42.039Z,38.65
2019-03-05T23:46:11.511Z,7.30
2019-03-05T23:48:41.315Z,8.05
2019-03-05T23:51:10.718Z,9.00
2019-03-05T23:53:40.445Z,7.30
2019-03-05T23:56:09.924Z,6.60
2019-03-05T23:58:39.347Z,6.95
